Time;durP1;ratioP1;P1;durP2;ratioP2;P2;SDS_P1;SDS_P2;PMS_P1;PMS_P2;Temp;Humidity;BMP_temperature;BMP_pressure;BME280_temperature;BME280_humidity;BME280_pressure;Samples;Min_cycle;Max_cycle;Signal;HPM_P1;HPM_P2
2021/01/24 05:02:26;;;;;;;19.02;12.35;;;2.50;99.90;;;;;;5063576;23;20240;-69
2021/01/24 05:04:52;;;;;;;19.67;12.10;;;2.40;99.90;;;;;;4954921;28;20267;-69
2021/01/24 05:07:18;;;;;;;20.35;12.80;;;2.40;99.90;;;;;;4954927;28;20296;-69
2021/01/24 05:09:46;;;;;;;18.20;13.40;;;2.40;99.90;;;;;;4955597;28;20212;-69
2021/01/24 05:12:13;;;;;;;19.00;13.23;;;2.40;99.90;;;;;;4937828;28;20232;-69
2021/01/24 05:14:40;;;;;;;17.27;12.35;;;2.40;99.90;;;;;;4935847;29;20205;-69
2021/01/24 05:17:07;;;;;;;20.40;13.25;;;2.40;99.90;;;;;;4935937;29;20232;-69
2021/01/24 05:19:35;;;;;;;29.23;12.70;;;2.40;99.90;;;;;;4935207;29;20273;-69
2021/01/24 05:22:03;;;;;;;16.90;13.65;;;2.40;99.90;;;;;;4935916;29;20328;-70
2021/01/24 05:24:30;;;;;;;15.20;12.70;;;2.40;99.90;;;;;;4936111;29;20210;-70
2021/01/24 05:26:56;;;;;;;22.15;13.10;;;2.40;99.90;;;;;;4936109;29;20233;-70
2021/01/24 05:29:24;;;;;;;24.42;14.43;;;2.40;99.90;;;;;;4935678;29;20202;-70
2021/01/24 05:31:51;;;;;;;16.48;13.63;;;2.40;99.90;;;;;;4935470;29;20693;-70
2021/01/24 05:34:22;;;;;;;21.23;13.02;;;2.40;99.90;;;;;;4935322;29;20210;-69
2021/01/24 05:36:49;;;;;;;17.50;13.57;;;2.30;99.90;;;;;;4936538;29;20701;-70
2021/01/24 05:39:15;;;;;;;17.35;11.98;;;2.30;99.90;;;;;;4936198;29;20210;-70
2021/01/24 05:41:41;;;;;;;21.17;13.57;;;2.40;99.90;;;;;;4935665;29;20683;-70
2021/01/24 05:44:12;;;;;;;19.90;13.43;;;2.30;99.90;;;;;;4934609;28;20206;-69
2021/01/24 05:46:38;;;;;;;20.13;14.07;;;2.30;99.90;;;;;;4932352;29;20652;-68
2021/01/24 05:49:07;;;;;;;18.15;12.18;;;2.30;99.90;;;;;;4940122;29;20206;-69
2021/01/24 05:51:34;;;;;;;19.02;13.02;;;2.30;99.90;;;;;;4939846;29;20227;-68
2021/01/24 05:54:01;;;;;;;21.58;13.63;;;2.30;99.90;;;;;;4940239;29;20205;-68
2021/01/24 05:56:28;;;;;;;22.67;14.20;;;2.30;99.90;;;;;;4942203;29;20221;-68
2021/01/24 05:58:55;;;;;;;16.90;12.25;;;2.30;99.90;;;;;;4948037;29;20643;-68
2021/01/24 06:01:22;;;;;;;22.40;12.73;;;2.30;99.90;;;;;;4944471;29;20626;-69
2021/01/24 06:03:49;;;;;;;20.38;14.40;;;2.30;99.90;;;;;;4938687;29;20209;-70
2021/01/24 06:06:15;;;;;;;20.55;13.15;;;2.30;99.90;;;;;;4938232;29;20257;-68
2021/01/24 06:08:42;;;;;;;18.00;13.75;;;2.30;99.90;;;;;;4938039;28;20217;-70
2021/01/24 06:11:10;;;;;;;24.55;14.13;;;2.20;99.90;;;;;;4937975;29;20233;-69
2021/01/24 06:13:38;;;;;;;16.30;12.48;;;2.30;99.90;;;;;;4937758;29;20213;-70
2021/01/24 06:16:07;;;;;;;19.98;13.10;;;2.30;99.90;;;;;;4938516;29;20209;-70
2021/01/24 06:18:45;;;;;;;20.20;12.88;;;2.20;99.90;;;;;;4937540;29;20306;-70
2021/01/24 06:21:17;;;;;;;14.23;11.40;;;2.30;99.90;;;;;;4937929;29;20226;-67
2021/01/24 06:23:50;;;;;;;20.08;12.68;;;2.20;99.90;;;;;;4937414;29;20257;-67
2021/01/24 06:26:20;;;;;;;21.73;14.40;;;2.20;99.90;;;;;;4938455;29;20225;-68
2021/01/24 06:28:49;;;;;;;18.70;13.68;;;2.20;99.90;;;;;;4938075;29;20213;-69
2021/01/24 06:31:17;;;;;;;21.00;14.15;;;2.20;99.90;;;;;;4937578;29;20313;-68
2021/01/24 06:33:44;;;;;;;20.13;15.07;;;2.20;99.90;;;;;;4936844;29;20214;-69
2021/01/24 06:36:11;;;;;;;18.27;13.52;;;2.20;99.90;;;;;;4937763;29;20202;-69
2021/01/24 06:38:39;;;;;;;24.77;15.02;;;2.30;99.90;;;;;;4937339;29;20210;-68
2021/01/24 06:41:06;;;;;;;19.35;14.20;;;2.20;99.90;;;;;;4938168;29;20550;-68
2021/01/24 06:43:37;;;;;;;18.75;14.40;;;2.30;99.90;;;;;;4937172;29;20265;-68
2021/01/24 06:46:03;;;;;;;20.75;14.13;;;2.20;99.90;;;;;;4937995;29;20251;-69
2021/01/24 06:48:44;;;;;;;21.10;13.45;;;2.30;99.90;;;;;;4936988;29;20285;-70
2021/01/24 06:51:33;;;;;;;22.55;13.88;;;2.30;99.90;;;;;;4937919;29;20233;-71
2021/01/24 06:53:59;;;;;;;19.67;13.35;;;2.20;99.90;;;;;;4937486;29;20235;-67
2021/01/24 06:56:35;;;;;;;22.75;14.98;;;2.30;99.90;;;;;;4937943;29;20549;-67
2021/01/24 06:59:03;;;;;;;22.40;14.60;;;2.20;99.90;;;;;;4936703;28;20210;-67
2021/01/24 07:01:30;;;;;;;18.52;14.40;;;2.20;99.90;;;;;;4937488;29;20233;-67
2021/01/24 07:04:41;;;;;;;23.70;15.93;;;2.20;99.90;;;;;;4935578;29;20206;-67
2021/01/24 07:07:40;;;;;;;22.73;14.88;;;2.20;99.90;;;;;;4937543;29;20269;-68
2021/01/24 07:10:09;;;;;;;24.42;15.70;;;2.20;99.90;;;;;;4937772;29;20225;-69
2021/01/24 07:12:43;;;;;;;23.63;17.40;;;2.20;99.90;;;;;;4937021;29;20236;-69
2021/01/24 07:15:19;;;;;;;26.02;13.88;;;2.20;99.90;;;;;;4937206;29;20201;-69
2021/01/24 07:17:54;;;;;;;22.23;14.25;;;2.20;99.90;;;;;;4936557;29;20264;-69
2021/01/24 07:20:21;;;;;;;22.60;14.32;;;2.20;99.90;;;;;;4938537;29;20209;-69
2021/01/24 07:22:48;;;;;;;20.40;14.30;;;2.20;99.90;;;;;;4937171;29;20209;-69
2021/01/24 07:25:14;;;;;;;24.13;16.52;;;2.20;99.90;;;;;;4937271;29;20264;-69
2021/01/24 07:27:42;;;;;;;21.02;14.38;;;2.20;99.90;;;;;;4937316;29;20577;-69
2021/01/24 07:30:11;;;;;;;24.80;17.05;;;2.20;99.90;;;;;;4937278;29;20213;-69
2021/01/24 07:32:40;;;;;;;24.23;16.42;;;2.10;99.90;;;;;;4935598;29;20217;-69
2021/01/24 07:35:07;;;;;;;23.55;18.13;;;2.10;99.90;;;;;;4937509;29;20214;-68
2021/01/24 07:37:33;;;;;;;25.10;16.13;;;2.10;99.90;;;;;;4937310;29;20202;-69
2021/01/24 07:40:00;;;;;;;27.23;18.05;;;2.20;99.90;;;;;;4937476;28;20221;-69
2021/01/24 07:42:26;;;;;;;24.67;17.05;;;2.10;99.90;;;;;;4937412;29;20226;-68
2021/01/24 07:44:52;;;;;;;27.00;17.58;;;2.20;99.90;;;;;;4937777;29;20352;-68
2021/01/24 07:47:19;;;;;;;26.90;17.90;;;2.10;99.90;;;;;;4938206;29;20689;-67
2021/01/24 07:49:45;;;;;;;25.13;16.23;;;2.10;99.90;;;;;;4934319;29;20216;-67
2021/01/24 07:52:11;;;;;;;27.35;18.00;;;2.10;99.90;;;;;;4937182;29;20278;-67
2021/01/24 07:54:38;;;;;;;27.90;17.50;;;2.10;99.90;;;;;;4937528;29;20601;-67
2021/01/24 07:57:05;;;;;;;27.90;17.85;;;2.10;99.90;;;;;;4937071;29;20273;-67
2021/01/24 07:59:32;;;;;;;25.98;17.80;;;2.10;99.90;;;;;;4937204;29;20281;-68
2021/01/24 08:01:59;;;;;;;27.88;18.30;;;2.10;99.90;;;;;;4931100;29;20233;-67
2021/01/24 08:04:26;;;;;;;31.60;20.40;;;2.10;99.90;;;;;;4935928;29;20214;-68
2021/01/24 08:06:52;;;;;;;28.60;17.95;;;2.10;99.90;;;;;;4936555;29;20748;-68
2021/01/24 08:09:19;;;;;;;34.97;18.30;;;2.10;99.90;;;;;;4935947;29;20659;-67
2021/01/24 08:11:45;;;;;;;28.70;18.83;;;2.10;99.90;;;;;;4935062;29;20776;-68
2021/01/24 08:14:12;;;;;;;29.15;17.77;;;2.10;99.90;;;;;;4935916;29;20209;-68
2021/01/24 08:16:41;;;;;;;25.85;17.60;;;2.10;99.90;;;;;;4936120;29;20568;-68
2021/01/24 08:19:09;;;;;;;29.23;18.95;;;2.10;99.90;;;;;;4935385;29;20210;-66
2021/01/24 08:21:37;;;;;;;26.02;16.58;;;2.10;99.90;;;;;;4936033;29;20297;-67
2021/01/24 08:24:05;;;;;;;30.45;18.63;;;2.20;99.90;;;;;;4935581;29;20217;-66
2021/01/24 08:26:31;;;;;;;31.00;20.88;;;2.20;99.90;;;;;;4936151;29;20229;-67
2021/01/24 08:28:58;;;;;;;28.73;18.42;;;2.20;99.90;;;;;;4935849;29;20202;-67
2021/01/24 08:31:24;;;;;;;31.70;19.58;;;2.20;99.90;;;;;;4935736;29;20244;-67
2021/01/24 08:33:52;;;;;;;30.70;18.80;;;2.10;99.90;;;;;;4934640;29;20257;-66
2021/01/24 08:36:20;;;;;;;28.73;19.67;;;2.20;99.90;;;;;;4935886;29;20198;-67
2021/01/24 08:38:48;;;;;;;30.90;20.08;;;2.20;99.90;;;;;;4935588;29;20210;-69
2021/01/24 08:41:15;;;;;;;27.73;17.58;;;2.20;99.90;;;;;;4936072;28;20226;-69
2021/01/24 08:43:42;;;;;;;26.73;18.33;;;2.20;99.90;;;;;;4935417;29;20214;-69
2021/01/24 08:46:22;;;;;;;32.97;19.50;;;2.20;99.90;;;;;;4930748;29;20229;-69
2021/01/24 08:49:09;;;;;;;27.15;18.90;;;2.20;99.90;;;;;;4934550;29;20217;-69
2021/01/24 08:51:52;;;;;;;29.70;18.83;;;2.30;99.90;;;;;;4935640;29;20237;-69
2021/01/24 08:54:24;;;;;;;28.25;18.63;;;2.30;99.90;;;;;;4935487;29;20205;-68
2021/01/24 08:56:51;;;;;;;33.30;21.23;;;2.30;99.90;;;;;;4936036;29;20248;-69
2021/01/24 08:59:19;;;;;;;31.15;19.15;;;2.30;99.90;;;;;;4934945;29;20209;-69
2021/01/24 09:01:46;;;;;;;24.67;18.60;;;2.30;99.90;;;;;;4934456;29;20285;-68
2021/01/24 09:04:27;;;;;;;34.72;22.98;;;2.30;99.90;;;;;;4934500;29;20217;-69
2021/01/24 09:07:00;;;;;;;32.15;21.10;;;2.30;99.90;;;;;;4935286;29;20587;-68
2021/01/24 09:09:28;;;;;;;37.05;26.27;;;2.40;99.90;;;;;;4935266;29;20206;-67
2021/01/24 09:11:54;;;;;;;30.63;21.02;;;2.40;99.90;;;;;;4935011;29;20225;-68
2021/01/24 09:14:20;;;;;;;26.02;17.63;;;2.40;99.90;;;;;;4934857;29;20217;-68
2021/01/24 09:16:57;;;;;;;26.90;17.95;;;2.40;99.90;;;;;;4934579;29;20209;-68
2021/01/24 09:19:23;;;;;;;31.40;17.73;;;2.40;99.90;;;;;;4934020;29;20220;-69
2021/01/24 09:21:49;;;;;;;27.13;17.60;;;2.50;99.90;;;;;;4935025;29;20630;-68
2021/01/24 09:24:15;;;;;;;24.90;18.35;;;2.50;99.90;;;;;;4934760;29;20202;-68
2021/01/24 09:26:42;;;;;;;42.05;21.30;;;2.50;99.90;;;;;;4934891;29;20661;-68
2021/01/24 09:29:09;;;;;;;27.88;19.20;;;2.50;99.90;;;;;;4917008;29;20663;-67
2021/01/24 09:31:35;;;;;;;23.15;17.30;;;2.60;99.90;;;;;;4932191;29;20222;-67
2021/01/24 09:34:01;;;;;;;23.48;16.65;;;2.60;99.90;;;;;;4933633;29;20209;-67
2021/01/24 09:36:27;;;;;;;27.98;18.10;;;2.70;99.90;;;;;;4935021;29;20616;-67
2021/01/24 09:38:53;;;;;;;28.05;18.80;;;2.70;99.90;;;;;;4934718;29;20694;-67
2021/01/24 09:41:19;;;;;;;27.67;18.58;;;2.70;99.90;;;;;;4934875;28;20225;-66
2021/01/24 09:43:46;;;;;;;27.65;18.23;;;2.80;99.90;;;;;;4934211;29;20213;-68
2021/01/24 09:46:12;;;;;;;27.30;17.65;;;2.80;99.90;;;;;;4934617;29;20237;-67
2021/01/24 09:48:38;;;;;;;29.20;19.40;;;2.80;99.90;;;;;;4933896;29;20214;-67
2021/01/24 09:51:08;;;;;;;26.27;18.15;;;2.90;99.90;;;;;;4934064;28;20692;-67
2021/01/24 09:53:36;;;;;;;23.40;17.40;;;2.90;99.90;;;;;;4934809;29;20214;-67
2021/01/24 09:56:03;;;;;;;25.75;18.02;;;2.90;99.90;;;;;;4934679;29;20292;-67
2021/01/24 09:58:29;;;;;;;23.40;16.50;;;3.00;99.90;;;;;;4934598;29;20210;-68
2021/01/24 10:00:56;;;;;;;24.45;17.35;;;3.00;99.90;;;;;;4934488;29;20252;-68
2021/01/24 10:03:22;;;;;;;25.38;17.30;;;3.10;99.90;;;;;;4933911;29;20216;-67
2021/01/24 10:05:48;;;;;;;22.55;16.45;;;3.20;99.90;;;;;;4934289;28;20214;-67
2021/01/24 10:08:14;;;;;;;22.95;17.20;;;3.20;99.90;;;;;;4934539;29;20686;-69
2021/01/24 10:10:41;;;;;;;20.83;16.40;;;3.30;99.90;;;;;;4934660;29;20233;-68
2021/01/24 10:13:07;;;;;;;21.67;16.17;;;3.30;99.90;;;;;;4934640;29;20221;-70
2021/01/24 10:15:33;;;;;;;24.25;15.60;;;3.40;99.90;;;;;;4934376;29;20206;-69
2021/01/24 10:18:00;;;;;;;20.80;15.98;;;3.50;99.90;;;;;;4933522;29;20218;-68
2021/01/24 10:20:26;;;;;;;20.38;14.68;;;3.50;99.90;;;;;;4934002;29;20226;-69
2021/01/24 10:22:52;;;;;;;20.50;14.68;;;3.60;99.90;;;;;;4933563;29;20604;-69
2021/01/24 10:25:19;;;;;;;17.75;14.68;;;3.60;99.90;;;;;;4934505;29;20287;-69
2021/01/24 10:27:45;;;;;;;18.83;14.15;;;3.60;99.90;;;;;;4934193;29;20598;-67
2021/01/24 10:30:13;;;;;;;19.17;13.98;;;3.60;99.90;;;;;;4934347;28;20221;-68
2021/01/24 10:32:40;;;;;;;17.80;14.35;;;3.70;99.90;;;;;;4935492;29;20234;-69
2021/01/24 10:35:09;;;;;;;19.95;12.63;;;3.70;99.90;;;;;;4937688;29;20312;-68
2021/01/24 10:37:35;;;;;;;17.90;12.23;;;3.70;99.90;;;;;;4940469;29;20209;-69
2021/01/24 10:40:03;;;;;;;19.55;14.48;;;3.80;99.90;;;;;;4938808;29;20206;-68
2021/01/24 10:42:29;;;;;;;15.88;13.70;;;3.90;99.90;;;;;;4938661;29;20232;-69
2021/01/24 10:44:55;;;;;;;18.90;13.57;;;3.90;99.90;;;;;;4940508;29;20233;-68
2021/01/24 10:47:21;;;;;;;18.23;13.23;;;4.00;99.90;;;;;;4936624;28;20233;-68
2021/01/24 10:49:47;;;;;;;15.13;11.32;;;4.00;99.90;;;;;;4936361;29;20552;-68
2021/01/24 10:52:14;;;;;;;18.45;13.10;;;4.10;99.90;;;;;;4936313;29;20237;-68
2021/01/24 10:54:40;;;;;;;17.00;13.10;;;4.20;99.90;;;;;;4936507;29;20203;-69
2021/01/24 10:57:06;;;;;;;13.35;11.00;;;4.30;99.90;;;;;;4936927;29;20211;-69
2021/01/24 10:59:33;;;;;;;15.52;12.02;;;4.40;99.90;;;;;;4937585;28;20210;-68
2021/01/24 11:01:59;;;;;;;15.50;10.70;;;4.60;99.90;;;;;;4937176;29;20229;-68
2021/01/24 11:04:25;;;;;;;14.07;11.48;;;4.60;99.90;;;;;;4939210;29;20210;-69
2021/01/24 11:06:53;;;;;;;14.70;11.48;;;4.80;99.90;;;;;;4941639;29;20226;-68
2021/01/24 11:09:20;;;;;;;15.43;11.23;;;4.80;99.90;;;;;;4938399;29;20729;-68
2021/01/24 11:11:46;;;;;;;12.80;10.70;;;4.80;99.90;;;;;;4931831;29;20242;-68
2021/01/24 11:14:13;;;;;;;14.85;10.15;;;4.80;99.90;;;;;;4925849;29;20240;-68
2021/01/24 11:16:39;;;;;;;11.57;9.57;;;4.80;99.90;;;;;;4942507;29;20271;-68
2021/01/24 11:19:05;;;;;;;15.13;10.25;;;4.80;99.90;;;;;;4937446;29;20596;-69
2021/01/24 11:21:31;;;;;;;24.08;15.60;;;4.90;99.90;;;;;;4939075;29;20233;-66
2021/01/24 11:23:57;;;;;;;16.20;11.38;;;4.90;99.90;;;;;;4938826;29;20210;-69
2021/01/24 11:26:24;;;;;;;31.10;18.67;;;5.00;99.90;;;;;;4934086;29;20639;-69
2021/01/24 11:28:50;;;;;;;19.45;12.50;;;5.10;99.90;;;;;;4930947;29;20205;-68
2021/01/24 11:31:17;;;;;;;13.60;10.80;;;5.10;99.90;;;;;;4935448;29;20686;-70
2021/01/24 11:33:44;;;;;;;205.80;82.72;;;5.20;99.90;;;;;;4935521;29;20210;-69
2021/01/24 11:36:10;;;;;;;31.75;19.30;;;5.30;99.90;;;;;;4936000;29;20649;-69
2021/01/24 11:38:36;;;;;;;44.85;26.70;;;5.40;99.90;;;;;;4937074;29;20213;-69
2021/01/24 11:41:02;;;;;;;11.27;9.15;;;5.40;99.90;;;;;;4937501;29;20234;-69
2021/01/24 11:43:29;;;;;;;16.98;11.68;;;5.40;99.90;;;;;;4938410;29;20202;-69
2021/01/24 11:45:56;;;;;;;25.90;15.93;;;5.40;99.90;;;;;;4928620;29;20305;-69
2021/01/24 11:48:22;;;;;;;12.50;9.75;;;5.50;99.90;;;;;;4935035;29;20563;-68
2021/01/24 11:50:49;;;;;;;25.13;14.00;;;5.50;99.90;;;;;;4936294;29;20304;-69
2021/01/24 11:53:16;;;;;;;18.60;11.90;;;5.50;99.90;;;;;;4936800;29;20202;-69
2021/01/24 11:55:42;;;;;;;19.65;12.98;;;5.40;99.90;;;;;;4936526;29;20206;-69
2021/01/24 11:58:09;;;;;;;11.15;9.73;;;5.50;99.90;;;;;;4936953;29;20210;-69
2021/01/24 12:00:35;;;;;;;15.38;12.00;;;5.60;99.90;;;;;;4936485;29;20226;-68
2021/01/24 12:03:02;;;;;;;10.68;8.32;;;5.60;99.90;;;;;;4935361;28;20225;-69
2021/01/24 12:05:28;;;;;;;10.85;8.52;;;5.60;99.90;;;;;;4936658;29;20610;-70
2021/01/24 12:07:54;;;;;;;8.27;7.13;;;5.60;99.90;;;;;;4936437;29;20238;-70
2021/01/24 12:10:20;;;;;;;22.05;11.82;;;5.60;99.90;;;;;;4936303;29;20209;-70
2021/01/24 12:12:46;;;;;;;14.68;9.50;;;5.80;99.90;;;;;;4935906;29;20214;-70
2021/01/24 12:15:13;;;;;;;8.68;7.82;;;5.80;99.90;;;;;;4935966;29;20210;-70
2021/01/24 12:17:40;;;;;;;8.75;7.90;;;5.90;99.90;;;;;;4935755;29;20593;-69
2021/01/24 12:20:07;;;;;;;8.65;7.78;;;5.90;99.90;;;;;;4936273;29;20210;-69
2021/01/24 12:22:33;;;;;;;23.58;15.65;;;5.80;99.90;;;;;;4936199;29;20220;-69
2021/01/24 12:24:59;;;;;;;9.30;8.02;;;5.90;99.90;;;;;;4935956;29;20666;-68
2021/01/24 12:27:25;;;;;;;9.85;8.27;;;6.10;99.90;;;;;;4936140;29;20237;-68
2021/01/24 12:29:51;;;;;;;7.90;7.05;;;6.20;99.90;;;;;;4935687;29;20337;-69
2021/01/24 12:32:17;;;;;;;8.40;7.60;;;6.10;99.90;;;;;;4935680;29;20234;-68
2021/01/24 12:34:44;;;;;;;8.25;7.22;;;6.10;99.90;;;;;;4934810;29;20218;-69
2021/01/24 12:37:10;;;;;;;7.20;6.20;;;6.00;99.90;;;;;;4936031;29;20209;-69
2021/01/24 12:39:36;;;;;;;6.20;5.70;;;6.00;99.90;;;;;;4935592;29;20214;-68
2021/01/24 12:42:03;;;;;;;6.50;5.70;;;5.90;99.90;;;;;;4935489;29;20230;-69
2021/01/24 12:44:29;;;;;;;6.13;5.65;;;5.90;99.90;;;;;;4935082;29;20206;-69
2021/01/24 12:46:55;;;;;;;6.70;5.78;;;5.80;99.90;;;;;;4935730;29;20233;-68
2021/01/24 12:49:21;;;;;;;5.45;4.93;;;5.80;99.90;;;;;;4934989;29;20210;-69
2021/01/24 12:51:48;;;;;;;6.43;5.80;;;5.70;99.90;;;;;;4935835;29;20598;-68
2021/01/24 12:54:14;;;;;;;7.47;6.38;;;5.60;99.90;;;;;;4935639;29;20210;-69
2021/01/24 12:56:40;;;;;;;8.32;7.25;;;5.70;99.90;;;;;;4935461;29;20597;-69
2021/01/24 12:59:07;;;;;;;7.30;6.63;;;5.70;99.90;;;;;;4935275;29;20213;-69
2021/01/24 13:01:33;;;;;;;4.53;4.13;;;5.80;99.90;;;;;;4935305;29;20297;-68
2021/01/24 13:03:59;;;;;;;6.00;5.50;;;5.80;99.90;;;;;;4934461;29;20222;-69
2021/01/24 13:06:25;;;;;;;4.63;4.20;;;5.80;99.90;;;;;;4935585;29;20226;-69
2021/01/24 13:08:52;;;;;;;4.90;4.50;;;5.80;99.90;;;;;;4935387;29;20209;-69
2021/01/24 13:11:18;;;;;;;3.53;3.08;;;5.70;99.90;;;;;;4935280;29;20226;-69
2021/01/24 13:13:45;;;;;;;4.10;3.20;;;5.70;99.90;;;;;;4935257;29;20213;-68
2021/01/24 13:16:11;;;;;;;3.92;3.63;;;5.60;99.90;;;;;;4935577;29;20574;-68
2021/01/24 13:18:37;;;;;;;3.70;3.45;;;5.60;99.90;;;;;;4935345;29;20214;-69
2021/01/24 13:21:04;;;;;;;3.10;2.90;;;5.70;99.90;;;;;;4937494;29;20225;-69
2021/01/24 13:23:30;;;;;;;7.40;5.90;;;5.70;99.90;;;;;;4939053;29;20619;-69
2021/01/24 13:25:57;;;;;;;7.45;4.93;;;5.80;99.90;;;;;;4935443;29;20209;-69
2021/01/24 13:28:23;;;;;;;40.50;21.80;;;5.70;99.90;;;;;;4934875;29;20261;-69
2021/01/24 13:30:49;;;;;;;13.10;9.48;;;5.80;99.90;;;;;;4935060;29;20296;-69
2021/01/24 13:33:16;;;;;;;41.28;20.48;;;5.70;99.90;;;;;;4933862;29;20264;-69
2021/01/24 13:35:42;;;;;;;37.47;20.38;;;5.70;99.90;;;;;;4935525;29;20225;-69
2021/01/24 13:38:08;;;;;;;45.10;25.60;;;5.70;99.90;;;;;;4935023;29;20202;-69
2021/01/24 13:40:34;;;;;;;28.05;18.35;;;5.60;99.90;;;;;;4934710;29;20236;-68
2021/01/24 13:43:01;;;;;;;19.65;11.63;;;5.60;99.90;;;;;;4934658;29;20615;-68
2021/01/24 13:45:28;;;;;;;13.43;11.00;;;5.60;99.90;;;;;;4934948;29;20225;-68
2021/01/24 13:47:54;;;;;;;24.90;14.70;;;5.60;99.90;;;;;;4933748;29;20251;-65
2021/01/24 13:50:20;;;;;;;8.90;8.00;;;5.60;99.90;;;;;;4934476;28;20548;-69
2021/01/24 13:52:46;;;;;;;35.80;21.02;;;5.60;99.90;;;;;;4934005;29;20206;-69
2021/01/24 13:55:13;;;;;;;19.52;11.65;;;5.60;99.90;;;;;;4924441;29;20617;-70
2021/01/24 13:57:39;;;;;;;16.75;11.15;;;5.60;99.90;;;;;;4918738;29;20681;-68
2021/01/24 14:00:09;;;;;;;13.43;10.10;;;5.60;99.90;;;;;;4933759;28;20213;-68
2021/01/24 14:02:35;;;;;;;8.65;7.35;;;5.60;99.90;;;;;;4933435;29;20241;-67
2021/01/24 14:05:01;;;;;;;7.15;6.45;;;5.60;99.90;;;;;;4933169;29;20210;-67
2021/01/24 14:07:27;;;;;;;6.40;5.75;;;5.60;99.90;;;;;;4929428;29;20321;-67
2021/01/24 14:09:54;;;;;;;11.43;8.32;;;5.60;99.90;;;;;;4934148;29;20237;-67
2021/01/24 14:12:20;;;;;;;5.07;4.57;;;5.60;99.90;;;;;;4934972;29;20221;-67
2021/01/24 14:14:46;;;;;;;16.42;10.50;;;5.60;99.90;;;;;;4934873;29;20514;-67
2021/01/24 14:17:13;;;;;;;3.95;3.65;;;5.60;99.90;;;;;;4935745;29;20217;-67
2021/01/24 14:19:39;;;;;;;15.43;10.63;;;5.60;99.90;;;;;;4933561;29;20213;-67
2021/01/24 14:22:05;;;;;;;36.42;18.00;;;5.60;99.90;;;;;;4933980;29;20237;-67
2021/01/24 14:24:31;;;;;;;20.13;12.35;;;5.60;99.90;;;;;;4934585;28;20214;-67
2021/01/24 14:26:57;;;;;;;20.27;11.15;;;5.50;99.90;;;;;;4934813;29;20230;-69
2021/01/24 14:29:23;;;;;;;7.70;6.90;;;5.50;99.90;;;;;;4934492;29;20214;-67
2021/01/24 14:31:50;;;;;;;5.25;4.75;;;5.50;99.90;;;;;;4934532;29;20233;-67
2021/01/24 14:34:17;;;;;;;5.50;4.82;;;5.40;99.90;;;;;;4933658;28;20289;-67
2021/01/24 14:36:43;;;;;;;7.75;5.13;;;5.40;99.90;;;;;;4934677;29;20549;-67
2021/01/24 14:39:09;;;;;;;29.02;16.70;;;5.40;99.90;;;;;;4934053;29;20269;-68
2021/01/24 14:41:36;;;;;;;15.50;10.90;;;5.30;99.90;;;;;;4933603;29;20248;-66
2021/01/24 14:44:02;;;;;;;27.15;18.10;;;5.30;99.90;;;;;;4933065;29;20222;-67
2021/01/24 14:46:28;;;;;;;9.60;7.40;;;5.20;99.90;;;;;;4934417;29;20269;-68
2021/01/24 14:48:54;;;;;;;7.28;6.65;;;5.20;99.90;;;;;;4933909;29;20236;-68
2021/01/24 14:51:22;;;;;;;4.78;4.38;;;5.10;99.90;;;;;;4934034;29;20602;-67
2021/01/24 14:53:48;;;;;;;6.18;5.10;;;5.10;99.90;;;;;;4932376;28;20693;-67
2021/01/24 14:56:14;;;;;;;5.78;5.18;;;5.10;99.90;;;;;;4933549;29;20210;-67
2021/01/24 14:58:40;;;;;;;5.47;5.07;;;5.00;99.90;;;;;;4934590;29;20209;-68
2021/01/24 15:01:07;;;;;;;9.95;8.27;;;5.00;99.90;;;;;;4933567;29;20241;-68
2021/01/24 15:03:33;;;;;;;8.98;7.30;;;5.00;99.90;;;;;;4932399;29;20214;-68
2021/01/24 15:05:59;;;;;;;9.43;8.10;;;5.00;99.90;;;;;;4933092;28;20210;-67
2021/01/24 15:08:26;;;;;;;7.75;6.65;;;4.90;99.90;;;;;;4933071;29;20718;-68
2021/01/24 15:10:52;;;;;;;11.93;9.93;;;4.90;99.90;;;;;;4933654;29;20233;-68
2021/01/24 15:13:18;;;;;;;10.45;8.35;;;4.80;99.90;;;;;;4933365;29;20209;-68
2021/01/24 15:15:44;;;;;;;11.70;9.90;;;4.80;99.90;;;;;;4934392;28;20352;-68
2021/01/24 15:18:10;;;;;;;10.35;8.35;;;4.80;99.90;;;;;;4934240;29;20293;-68
2021/01/24 15:20:37;;;;;;;8.32;7.53;;;4.80;99.90;;;;;;4920733;29;20234;-68
2021/01/24 15:23:03;;;;;;;8.98;6.88;;;4.70;99.90;;;;;;4933691;29;20214;-68
2021/01/24 15:25:30;;;;;;;7.47;6.70;;;4.60;99.90;;;;;;4933551;28;20692;-68
2021/01/24 15:27:56;;;;;;;8.30;7.43;;;4.60;99.90;;;;;;4934331;29;20792;-68
2021/01/24 15:30:23;;;;;;;9.48;7.30;;;4.60;99.90;;;;;;4933159;29;20730;-67
2021/01/24 15:32:50;;;;;;;9.07;7.15;;;4.60;99.90;;;;;;4933004;29;20214;-68
2021/01/24 15:35:17;;;;;;;9.95;7.53;;;4.50;99.90;;;;;;4933095;29;20225;-67
2021/01/24 15:37:43;;;;;;;7.15;6.50;;;4.50;99.90;;;;;;4933753;29;20293;-67
2021/01/24 15:40:11;;;;;;;12.63;9.07;;;4.50;99.90;;;;;;4931714;28;20226;-68
2021/01/24 15:42:38;;;;;;;14.82;10.43;;;4.40;99.90;;;;;;4933659;29;20710;-68
2021/01/24 15:45:06;;;;;;;9.13;7.20;;;4.30;99.90;;;;;;4933093;29;20206;-68
2021/01/24 15:47:33;;;;;;;7.97;6.47;;;4.30;99.90;;;;;;4934356;29;20277;-68
2021/01/24 15:49:59;;;;;;;6.25;5.70;;;4.30;99.90;;;;;;4924528;28;20274;-68
2021/01/24 15:52:25;;;;;;;9.27;6.68;;;4.30;99.90;;;;;;4916039;29;20285;-67
2021/01/24 15:54:51;;;;;;;15.82;12.40;;;4.30;99.90;;;;;;4930693;29;20210;-67
2021/01/24 15:57:18;;;;;;;21.92;15.55;;;4.20;99.90;;;;;;4935956;29;20198;-67
2021/01/24 15:59:45;;;;;;;14.60;11.40;;;4.20;99.90;;;;;;4935831;29;20261;-66
2021/01/24 16:02:11;;;;;;;21.60;14.43;;;4.20;99.90;;;;;;4935650;29;20234;-68
2021/01/24 16:04:37;;;;;;;15.88;11.30;;;4.10;99.90;;;;;;4933607;29;20883;-68
2021/01/24 16:07:03;;;;;;;14.05;10.60;;;4.10;99.90;;;;;;4935850;28;20698;-68
2021/01/24 16:09:29;;;;;;;13.40;9.75;;;4.10;99.90;;;;;;4933965;29;20282;-68
2021/01/24 16:11:55;;;;;;;13.85;9.45;;;4.00;99.90;;;;;;4935659;29;20540;-70
2021/01/24 16:14:21;;;;;;;9.68;8.68;;;4.00;99.90;;;;;;4935483;29;20210;-70
2021/01/24 16:16:48;;;;;;;15.20;10.48;;;4.00;99.90;;;;;;4936095;28;20206;-71
2021/01/24 16:19:14;;;;;;;10.45;7.90;;;4.00;99.90;;;;;;4936201;29;20285;-70
2021/01/24 16:21:41;;;;;;;14.50;9.52;;;4.00;99.90;;;;;;4937374;29;20229;-70
2021/01/24 16:24:07;;;;;;;11.65;8.98;;;3.90;99.90;;;;;;4938675;29;20231;-70
2021/01/24 16:26:34;;;;;;;13.80;9.88;;;3.90;99.90;;;;;;4935328;29;20706;-70
2021/01/24 16:29:00;;;;;;;12.00;9.05;;;3.90;99.90;;;;;;4935801;29;20216;-70
2021/01/24 16:31:26;;;;;;;8.75;7.80;;;3.80;99.90;;;;;;4935160;29;20241;-71
2021/01/24 16:33:53;;;;;;;10.55;8.35;;;3.80;99.90;;;;;;4934259;29;20221;-71
2021/01/24 16:36:19;;;;;;;13.40;10.10;;;3.70;99.90;;;;;;4936029;28;20670;-70
2021/01/24 16:38:45;;;;;;;9.95;8.20;;;3.70;99.90;;;;;;4934652;28;20209;-70
2021/01/24 16:41:11;;;;;;;11.10;9.70;;;3.60;99.90;;;;;;4934766;29;20221;-70
2021/01/24 16:43:37;;;;;;;13.13;9.90;;;3.60;99.90;;;;;;4935364;29;20630;-70
2021/01/24 16:46:04;;;;;;;22.75;14.80;;;3.50;99.90;;;;;;4934177;29;20206;-70
2021/01/24 16:48:30;;;;;;;24.85;16.83;;;3.50;99.90;;;;;;4934813;29;20233;-70
2021/01/24 16:50:57;;;;;;;24.90;16.42;;;3.50;99.90;;;;;;4931068;29;21542;-69
2021/01/24 16:53:23;;;;;;;20.48;14.10;;;3.40;99.90;;;;;;4933985;29;20236;-70
2021/01/24 16:55:49;;;;;;;16.75;9.38;;;3.40;99.90;;;;;;4934177;29;20682;-68
2021/01/24 16:58:15;;;;;;;41.08;25.98;;;3.40;99.90;;;;;;4935245;29;20209;-68
2021/01/24 17:00:42;;;;;;;32.85;21.20;;;3.40;99.90;;;;;;4934368;29;20296;-68
2021/01/24 17:03:08;;;;;;;34.72;21.48;;;3.30;99.90;;;;;;4931833;29;20198;-69
2021/01/24 17:05:36;;;;;;;36.53;18.25;;;3.30;99.90;;;;;;4932877;29;20218;-70
2021/01/24 17:08:03;;;;;;;19.55;13.80;;;3.30;99.90;;;;;;4935558;29;20221;-69
2021/01/24 17:10:30;;;;;;;20.15;14.25;;;3.30;99.90;;;;;;4935488;29;20553;-70
2021/01/24 17:12:56;;;;;;;19.77;12.75;;;3.30;99.90;;;;;;4934557;29;20248;-70
2021/01/24 17:15:22;;;;;;;33.72;18.40;;;3.30;99.90;;;;;;4931555;29;20209;-69
2021/01/24 17:17:48;;;;;;;31.45;19.67;;;3.20;99.90;;;;;;4934322;29;20212;-69
2021/01/24 17:20:15;;;;;;;36.30;20.13;;;3.20;99.90;;;;;;4934421;29;20214;-70
2021/01/24 17:22:41;;;;;;;20.10;14.75;;;3.20;99.90;;;;;;4934370;29;20597;-70
2021/01/24 17:25:09;;;;;;;18.35;12.55;;;3.20;99.90;;;;;;4934604;29;20214;-70
2021/01/24 17:27:36;;;;;;;26.17;17.40;;;3.20;99.90;;;;;;4934623;29;20214;-70
2021/01/24 17:30:03;;;;;;;20.40;12.73;;;3.20;99.90;;;;;;4927113;29;20258;-70
2021/01/24 17:32:29;;;;;;;14.82;12.15;;;3.20;99.90;;;;;;4933434;29;20226;-70
2021/01/24 17:34:55;;;;;;;15.38;11.48;;;3.20;99.90;;;;;;4932485;29;20221;-70
2021/01/24 17:37:21;;;;;;;22.30;15.45;;;3.10;99.90;;;;;;4932951;29;20210;-70
2021/01/24 17:39:47;;;;;;;20.83;14.35;;;3.10;99.90;;;;;;4930313;29;20265;-71
2021/01/24 17:42:14;;;;;;;17.20;11.63;;;3.00;99.90;;;;;;4933573;29;20221;-70